CheckWX is a tool to help pilots better visualize weather data.  It is not intended as a substitute for an official pre-flight weather briefing.

06:15:56 UTC

KAUH METAR
Aurora Municipal - Al Potter Field Airport
Aurora, Nebraska, USA
Current

21 mins ago

KAUH 230555Z AUTO 01010KT 10SM CLR 06/05 A3016 RMK AO2 T00620050 10143 20053 401600053
Observed
Apr-23 @ 05:55 UTC
Wind
  • 010° at 10 KTS
Visibility
10 SM
Flight Rules
VFR
Cloud Levels
  • Clear skies
Temperature
C / 43°F
Dewpoint
C / 41°F
Humidity
93%
Altimeter
30.16" Hg
Pressure
1021.32 hPa
Previous

41 mins ago

KAUH 230535Z AUTO 01008KT 10SM CLR 07/05 A3016 RMK AO2 T00670054
Observed
Apr-23 @ 05:35 UTC
Wind
  • 010° at 8 KTS
Visibility
10 SM
Flight Rules
VFR
Cloud Levels
  • Clear skies
Temperature
C / 45°F
Dewpoint
C / 41°F
Humidity
87%
Altimeter
30.16" Hg
Pressure
1021.32 hPa
Previous

1 hour ago

KAUH 230515Z AUTO 36006KT 10SM CLR 07/06 A3017 RMK AO2 T00720058
Observed
Apr-23 @ 05:15 UTC
Wind
  • 360° at 6 KTS
Visibility
10 SM
Flight Rules
VFR
Cloud Levels
  • Clear skies
Temperature
C / 45°F
Dewpoint
C / 43°F
Humidity
93%
Altimeter
30.17" Hg
Pressure
1021.72 hPa